Aeroporto :
LOGIN :

Iscrizione | Disclaimer

   EN    FR    IT 

 










Sommario :    VFR   VFR Marginale   IFR   IFR Intensivo   IFR Molto Intensivo
Visibilità : 
Base nubi : 
>= 8 km
>= 3000ft
5 / 8 km
1000 / 3000 ft
1500m / 5 km
500 / 1000 ft
800 / 1500m
200 / 500 ft
< 800m
< 200 ft
Simboli :   Temporali  Nebbia  Neve Forte  Precipitazioni Forti  Vento > 20 kt
SIGMETs :   Varie  Temporali  Ghiacco  Turbolenza  Onda orograficha  Ceneri Vulcaniche






- Altitudine del aeroporto : 1822 ft


ETSL - Lechfeld AB

ULTIMO METAR :
  • 140520Z 03003KT 9999 MIFG FEW200 M03/M03 Q1002 BLU+

METARs OBSOLETI :
  • 140420Z 06004KT 9999 M03/M03 Q1003 BLU+
  • 140320Z 07001KT 9999 FEW200 M03/M03 Q1003 BLU+

TAF TAF ETSL
Valido dal 14 a 06 ore il 14 a 15 ore UTC


140525Z 1406/1415 05005KT 9999 NSW SCT150 BKN230
PROB30 1407/1410 03003KT 2000 BCFG SCT230 BY ETGL



MetMap, La meteo Aeronautica in un colpo d'occhio ! - Copyright ORBIFLY Dicembre 2007 - Disclaimer

ORBIFLY MET'MAP TEAM :

Programmazione e sviluppo : Alexandra Zaïnal
Concezione e sviluppo : Baudouin d'Aumeries
Co-Programmazione e sviluppo : Marc-Olivier Méhu
Supporto tecnico e logistico : Manuel Goepfert
Aiuto per la traduzione : Arnaldo La Scala

Contatto : metmap@orbifly.com




FONTI E CREDITI :

   NOAA